CCA800 UAAA-ZBAA
Flight info
| Callsign | CCA800 |
|---|---|
| Flight time | 4h 4m |
| Altitude | 35000 |
| Route | K0848F350 PIGAL1A PIGAL M610 RULAD/K0852S1070 A343 POSOT B215 NUKTI W66 GOVSA/K0845S1130 W66 DKO W69 GUVBA GUVBA6J |
| Aircraft | B38M/M-SDE1FGHILORVWXY/HB1 |
Departure
| Time | 2026-04-20 23:13 |
|---|---|
| Airport | Almaty International Airport (UAAA) |
Arrival
| Time | 2026-04-21 03:18 |
|---|---|
| Airport | Beijing Capital International Airport (ZBAA) |
| Time | Latitude | Longitude | Altitude | Speed | Heading |
|---|---|---|---|---|---|
| 2026-04-20 22:54 | 43.35032 | 77.01252 | 2231 ft | 0 kts | 246° |
| 2026-04-20 23:02 | 43.35038 | 77.01270 | 2231 ft | 2 kts | 246° |
| 2026-04-20 23:02 | 43.35045 | 77.01291 | 2231 ft | 2 kts | 246° |
| 2026-04-20 23:03 | 43.35052 | 77.01312 | 2231 ft | 2 kts | 247° |
| 2026-04-20 23:03 | 43.35058 | 77.01333 | 2231 ft | 2 kts | 245° |
| 2026-04-20 23:03 | 43.35066 | 77.01353 | 2231 ft | 2 kts | 239° |
| 2026-04-20 23:03 | 43.35076 | 77.01371 | 2231 ft | 2 kts | 206° |
| 2026-04-20 23:04 | 43.35092 | 77.01369 | 2231 ft | 2 kts | 156° |
| 2026-04-20 23:04 | 43.35106 | 77.01361 | 2231 ft | 1 kts | 156° |
| 2026-04-20 23:04 | 43.35109 | 77.01359 | 2231 ft | 0 kts | 156° |
| 2026-04-20 23:06 | 43.35105 | 77.01361 | 2231 ft | 1 kts | 156° |
| 2026-04-20 23:06 | 43.35088 | 77.01372 | 2231 ft | 4 kts | 156° |
| 2026-04-20 23:07 | 43.35056 | 77.01392 | 2231 ft | 6 kts | 156° |
| 2026-04-20 23:07 | 43.35007 | 77.01421 | 2231 ft | 9 kts | 156° |
| 2026-04-20 23:07 | 43.34944 | 77.01459 | 2231 ft | 11 kts | 156° |
| 2026-04-20 23:07 | 43.34867 | 77.01503 | 2231 ft | 13 kts | 168° |
| 2026-04-20 23:08 | 43.34775 | 77.01477 | 2231 ft | 14 kts | 199° |
| 2026-04-20 23:08 | 43.34674 | 77.01444 | 2231 ft | 16 kts | 165° |
| 2026-04-20 23:08 | 43.34564 | 77.01478 | 2232 ft | 17 kts | 161° |
| 2026-04-20 23:08 | 43.34458 | 77.01545 | 2232 ft | 17 kts | 155° |
| 2026-04-20 23:09 | 43.34347 | 77.01613 | 2232 ft | 18 kts | 155° |
| 2026-04-20 23:09 | 43.34246 | 77.01677 | 2233 ft | 14 kts | 155° |
| 2026-04-20 23:09 | 43.34157 | 77.01737 | 2232 ft | 14 kts | 145° |
| 2026-04-20 23:09 | 43.34150 | 77.01798 | 2232 ft | 5 kts | 61° |
| 2026-04-20 23:10 | 43.34155 | 77.01808 | 2232 ft | 0 kts | 57° |
| 2026-04-20 23:11 | 43.34170 | 77.01840 | 2232 ft | 21 kts | 57° |
| 2026-04-20 23:12 | 43.34390 | 77.02282 | 2233 ft | 90 kts | 56° |
| 2026-04-20 23:12 | 43.34850 | 77.03210 | 2227 ft | 146 kts | 56° |
| 2026-04-20 23:12 | 43.35085 | 77.03692 | 2245 ft | 163 kts | 57° |
| 2026-04-20 23:13 | 43.35354 | 77.04241 | 2365 ft | 169 kts | 57° |
| 2026-04-20 23:13 | 43.36019 | 77.05641 | 2846 ft | 180 kts | 57° |
| 2026-04-20 23:13 | 43.36714 | 77.07068 | 3545 ft | 181 kts | 57° |
| 2026-04-20 23:13 | 43.37433 | 77.08521 | 4141 ft | 190 kts | 57° |
| 2026-04-20 23:14 | 43.38224 | 77.10118 | 4496 ft | 216 kts | 56° |
| 2026-04-20 23:14 | 43.39115 | 77.11919 | 4898 ft | 240 kts | 56° |
| 2026-04-20 23:14 | 43.40094 | 77.13901 | 5388 ft | 259 kts | 56° |
| 2026-04-20 23:14 | 43.41142 | 77.16025 | 5989 ft | 275 kts | 56° |
| 2026-04-20 23:15 | 43.42222 | 77.18214 | 6854 ft | 278 kts | 56° |
| 2026-04-20 23:15 | 43.43323 | 77.20447 | 7611 ft | 286 kts | 56° |
| 2026-04-20 23:15 | 43.44447 | 77.22731 | 8404 ft | 291 kts | 55° |
| 2026-04-20 23:15 | 43.45598 | 77.25069 | 9152 ft | 299 kts | 55° |
| 2026-04-20 23:16 | 43.46776 | 77.27465 | 9917 ft | 305 kts | 55° |
| 2026-04-20 23:16 | 43.47971 | 77.29898 | 10447 ft | 318 kts | 55° |
| 2026-04-20 23:16 | 43.49250 | 77.32504 | 10764 ft | 338 kts | 55° |
| 2026-04-20 23:16 | 43.50608 | 77.35273 | 11062 ft | 358 kts | 55° |
| 2026-04-20 23:17 | 43.52036 | 77.38188 | 11410 ft | 374 kts | 54° |
| 2026-04-20 23:17 | 43.53509 | 77.41198 | 12000 ft | 380 kts | 54° |
| 2026-04-20 23:17 | 43.54995 | 77.44236 | 12697 ft | 385 kts | 54° |
| 2026-04-20 23:17 | 43.56491 | 77.47299 | 12924 ft | 385 kts | 54° |
| 2026-04-20 23:18 | 43.57669 | 77.50614 | 13536 ft | 387 kts | 72° |
| 2026-04-20 23:18 | 43.58065 | 77.54303 | 14177 ft | 394 kts | 88° |
| 2026-04-20 23:18 | 43.58074 | 77.58097 | 14804 ft | 397 kts | 89° |
| 2026-04-20 23:18 | 43.58061 | 77.61924 | 15446 ft | 401 kts | 89° |
| 2026-04-20 23:19 | 43.58030 | 77.65752 | 16050 ft | 405 kts | 90° |
| 2026-04-20 23:19 | 43.57987 | 77.69661 | 16650 ft | 410 kts | 90° |
| 2026-04-20 23:19 | 43.57937 | 77.73612 | 17244 ft | 414 kts | 90° |
| 2026-04-20 23:19 | 43.57883 | 77.77608 | 17825 ft | 418 kts | 90° |
| 2026-04-20 23:20 | 43.57826 | 77.81633 | 18392 ft | 422 kts | 90° |
| 2026-04-20 23:20 | 43.57768 | 77.85699 | 18900 ft | 425 kts | 90° |
| 2026-04-20 23:20 | 43.57707 | 77.89800 | 19433 ft | 428 kts | 90° |
| 2026-04-20 23:20 | 43.57646 | 77.93875 | 19939 ft | 431 kts | 90° |
| 2026-04-20 23:21 | 43.57581 | 77.98029 | 20455 ft | 434 kts | 90° |
| 2026-04-20 23:21 | 43.57515 | 78.02202 | 20956 ft | 438 kts | 89° |
| 2026-04-20 23:21 | 43.57448 | 78.06414 | 21455 ft | 441 kts | 89° |
| 2026-04-20 23:21 | 43.57378 | 78.10661 | 21944 ft | 444 kts | 89° |
| 2026-04-20 23:22 | 43.57307 | 78.14925 | 22427 ft | 447 kts | 89° |
| 2026-04-20 23:22 | 43.57234 | 78.19221 | 22909 ft | 450 kts | 89° |
| 2026-04-20 23:22 | 43.57158 | 78.23555 | 23392 ft | 453 kts | 89° |
| 2026-04-20 23:22 | 43.57080 | 78.27911 | 23813 ft | 456 kts | 89° |
| 2026-04-20 23:23 | 43.57027 | 78.30814 | 24072 ft | 457 kts | 89° |
| 2026-04-20 23:23 | 43.56919 | 78.36651 | 24603 ft | 461 kts | 89° |
| 2026-04-20 23:23 | 43.56835 | 78.41082 | 24994 ft | 463 kts | 89° |
| 2026-04-20 23:23 | 43.56748 | 78.45550 | 25377 ft | 465 kts | 89° |
| 2026-04-20 23:24 | 43.56690 | 78.48511 | 25632 ft | 467 kts | 89° |
| 2026-04-20 23:24 | 43.56570 | 78.54469 | 26133 ft | 470 kts | 89° |
| 2026-04-20 23:24 | 43.56508 | 78.57533 | 26378 ft | 472 kts | 89° |
| 2026-04-20 23:24 | 43.56414 | 78.62018 | 26727 ft | 474 kts | 89° |
| 2026-04-20 23:25 | 43.56318 | 78.66572 | 27103 ft | 476 kts | 89° |
| 2026-04-20 23:25 | 43.56219 | 78.71147 | 27460 ft | 479 kts | 89° |
| 2026-04-20 23:25 | 43.56083 | 78.77299 | 27937 ft | 482 kts | 89° |
| 2026-04-20 23:25 | 43.56014 | 78.80371 | 28168 ft | 483 kts | 89° |
| 2026-04-20 23:26 | 43.55908 | 78.85014 | 28512 ft | 485 kts | 89° |
| 2026-04-20 23:26 | 43.55800 | 78.89684 | 28851 ft | 488 kts | 89° |
| 2026-04-20 23:26 | 43.55689 | 78.94366 | 29185 ft | 490 kts | 89° |
| 2026-04-20 23:26 | 43.55576 | 78.99074 | 29536 ft | 491 kts | 89° |
| 2026-04-20 23:27 | 43.55460 | 79.03789 | 29990 ft | 491 kts | 89° |
| 2026-04-20 23:27 | 43.55344 | 79.08479 | 30407 ft | 489 kts | 89° |
| 2026-04-20 23:27 | 43.55225 | 79.13163 | 30786 ft | 488 kts | 89° |
| 2026-04-20 23:27 | 43.55107 | 79.17840 | 31165 ft | 487 kts | 89° |
| 2026-04-20 23:28 | 43.54988 | 79.22444 | 31537 ft | 486 kts | 89° |
| 2026-04-20 23:28 | 43.54863 | 79.27098 | 31915 ft | 485 kts | 89° |
| 2026-04-20 23:28 | 43.54737 | 79.31740 | 32284 ft | 484 kts | 89° |
| 2026-04-20 23:28 | 43.54610 | 79.36383 | 32662 ft | 483 kts | 89° |
| 2026-04-20 23:29 | 43.54482 | 79.41007 | 33018 ft | 482 kts | 89° |
| 2026-04-20 23:29 | 43.54352 | 79.45621 | 33380 ft | 481 kts | 89° |
| 2026-04-20 23:29 | 43.54221 | 79.50231 | 33733 ft | 480 kts | 89° |
| 2026-04-20 23:29 | 43.54088 | 79.54826 | 34088 ft | 480 kts | 89° |
| 2026-04-20 23:30 | 43.53953 | 79.59414 | 34396 ft | 479 kts | 89° |
| 2026-04-20 23:30 | 43.53817 | 79.64002 | 34678 ft | 478 kts | 89° |
| 2026-04-20 23:30 | 43.53681 | 79.68522 | 34957 ft | 478 kts | 89° |
| 2026-04-20 23:30 | 43.53541 | 79.73102 | 35108 ft | 479 kts | 89° |
| 2026-04-20 23:31 | 43.53257 | 79.82241 | 35093 ft | 476 kts | 89° |
| 2026-04-20 23:31 | 43.52967 | 79.91345 | 35100 ft | 475 kts | 89° |
| 2026-04-20 23:32 | 43.52669 | 80.00439 | 35159 ft | 475 kts | 88° |
| 2026-04-20 23:32 | 43.52365 | 80.09546 | 35197 ft | 475 kts | 89° |
| 2026-04-20 23:33 | 43.52054 | 80.18624 | 35201 ft | 474 kts | 88° |
| 2026-04-20 23:33 | 43.51736 | 80.27703 | 35200 ft | 474 kts | 88° |
| 2026-04-20 23:34 | 43.51412 | 80.36722 | 35197 ft | 473 kts | 88° |
| 2026-04-20 23:34 | 43.51080 | 80.45780 | 35200 ft | 473 kts | 88° |
| 2026-04-20 23:35 | 43.50570 | 80.59342 | 35201 ft | 472 kts | 88° |
| 2026-04-20 23:36 | 43.50222 | 80.68382 | 35207 ft | 472 kts | 88° |
| 2026-04-20 23:36 | 43.50022 | 80.77392 | 35213 ft | 470 kts | 86° |
| 2026-04-20 23:37 | 43.49897 | 80.86391 | 35216 ft | 470 kts | 86° |
| 2026-04-20 23:37 | 43.49757 | 80.95327 | 35221 ft | 469 kts | 86° |
| 2026-04-20 23:38 | 43.49609 | 81.04319 | 35220 ft | 469 kts | 86° |
| 2026-04-20 23:38 | 43.49455 | 81.13298 | 35225 ft | 469 kts | 86° |
| 2026-04-20 23:39 | 43.49293 | 81.22270 | 35215 ft | 468 kts | 86° |
| 2026-04-20 23:39 | 43.49124 | 81.31259 | 35221 ft | 468 kts | 86° |
| 2026-04-20 23:40 | 43.48949 | 81.40224 | 35227 ft | 468 kts | 86° |
| 2026-04-20 23:40 | 43.48766 | 81.49184 | 35234 ft | 468 kts | 86° |
| 2026-04-20 23:41 | 43.48578 | 81.58085 | 35247 ft | 468 kts | 86° |
| 2026-04-20 23:41 | 43.48384 | 81.67039 | 35248 ft | 467 kts | 86° |
| 2026-04-20 23:42 | 43.48172 | 81.75987 | 35258 ft | 467 kts | 86° |
| 2026-04-20 23:42 | 43.47955 | 81.84932 | 35266 ft | 467 kts | 86° |
| 2026-04-20 23:43 | 43.47731 | 81.93879 | 35268 ft | 467 kts | 86° |
| 2026-04-20 23:43 | 43.47502 | 82.02771 | 35286 ft | 467 kts | 86° |
| 2026-04-20 23:44 | 43.47264 | 82.11701 | 35296 ft | 466 kts | 86° |
| 2026-04-20 23:44 | 43.47020 | 82.20640 | 35301 ft | 466 kts | 86° |
| 2026-04-20 23:45 | 43.46769 | 82.29557 | 35313 ft | 466 kts | 86° |
| 2026-04-20 23:45 | 43.46511 | 82.38468 | 35320 ft | 466 kts | 86° |
| 2026-04-20 23:46 | 43.46247 | 82.47376 | 35327 ft | 465 kts | 86° |
| 2026-04-20 23:46 | 43.45975 | 82.56282 | 35327 ft | 465 kts | 86° |
| 2026-04-20 23:47 | 43.45699 | 82.65121 | 35325 ft | 465 kts | 86° |
| 2026-04-20 23:47 | 43.45414 | 82.74005 | 35324 ft | 464 kts | 86° |
| 2026-04-20 23:48 | 43.45123 | 82.82890 | 35327 ft | 464 kts | 86° |
| 2026-04-20 23:48 | 43.44825 | 82.91764 | 35314 ft | 464 kts | 86° |
| 2026-04-20 23:49 | 43.44520 | 83.00633 | 35311 ft | 463 kts | 86° |
| 2026-04-20 23:49 | 43.44209 | 83.09479 | 35307 ft | 463 kts | 87° |
| 2026-04-20 23:50 | 43.43891 | 83.18333 | 35304 ft | 463 kts | 87° |
| 2026-04-20 23:50 | 43.43570 | 83.27122 | 35307 ft | 463 kts | 87° |
| 2026-04-20 23:51 | 43.43241 | 83.35959 | 35306 ft | 463 kts | 88° |
| 2026-04-20 23:51 | 43.42509 | 83.44798 | 35313 ft | 466 kts | 91° |
| 2026-04-20 23:52 | 43.41764 | 83.53645 | 35319 ft | 465 kts | 91° |
| 2026-04-20 23:52 | 43.41025 | 83.62492 | 35325 ft | 466 kts | 91° |
| 2026-04-20 23:53 | 43.40280 | 83.71358 | 35329 ft | 466 kts | 91° |
| 2026-04-20 23:53 | 43.39532 | 83.80155 | 35329 ft | 466 kts | 91° |
| 2026-04-20 23:54 | 43.38774 | 83.89000 | 35340 ft | 466 kts | 91° |
| 2026-04-20 23:54 | 43.38008 | 83.97857 | 35352 ft | 466 kts | 92° |
| 2026-04-20 23:55 | 43.37235 | 84.06717 | 35357 ft | 466 kts | 92° |
| 2026-04-20 23:55 | 43.36460 | 84.15514 | 35369 ft | 467 kts | 92° |
| 2026-04-20 23:56 | 43.35673 | 84.24364 | 35366 ft | 466 kts | 92° |
| 2026-04-20 23:56 | 43.34881 | 84.33215 | 35374 ft | 467 kts | 92° |
| 2026-04-20 23:57 | 43.34054 | 84.42056 | 35379 ft | 467 kts | 93° |
| 2026-04-20 23:57 | 43.33215 | 84.50910 | 35382 ft | 467 kts | 93° |
| 2026-04-20 23:58 | 43.32371 | 84.59762 | 35375 ft | 467 kts | 93° |
| 2026-04-20 23:58 | 43.31524 | 84.68566 | 35379 ft | 467 kts | 93° |
| 2026-04-20 23:59 | 43.30666 | 84.77410 | 35380 ft | 467 kts | 94° |
| 2026-04-20 23:59 | 43.29800 | 84.86268 | 35359 ft | 467 kts | 94° |
| 2026-04-21 00:00 | 43.28927 | 84.95123 | 35359 ft | 467 kts | 94° |
| 2026-04-21 00:00 | 43.28049 | 85.03956 | 35354 ft | 467 kts | 94° |
| 2026-04-21 00:01 | 43.27169 | 85.12743 | 35344 ft | 467 kts | 94° |
| 2026-04-21 00:01 | 43.26276 | 85.21584 | 35349 ft | 467 kts | 94° |
| 2026-04-21 00:02 | 43.25377 | 85.30420 | 35356 ft | 468 kts | 95° |
| 2026-04-21 00:02 | 43.24469 | 85.39265 | 35354 ft | 468 kts | 95° |
| 2026-04-21 00:03 | 43.23555 | 85.48110 | 35355 ft | 468 kts | 95° |
| 2026-04-21 00:03 | 43.22639 | 85.56899 | 35365 ft | 468 kts | 95° |
| 2026-04-21 00:04 | 43.21711 | 85.65744 | 35368 ft | 467 kts | 95° |
| 2026-04-21 00:04 | 43.20778 | 85.74562 | 35351 ft | 467 kts | 96° |
| 2026-04-21 00:05 | 43.19840 | 85.83382 | 35348 ft | 467 kts | 96° |
| 2026-04-21 00:05 | 43.18966 | 85.92199 | 35343 ft | 465 kts | 89° |
| 2026-04-21 00:05 | 43.19232 | 85.96564 | 35330 ft | 457 kts | 73° |
| 2026-04-21 00:06 | 43.20314 | 86.00616 | 35362 ft | 452 kts | 59° |
| 2026-04-21 00:06 | 43.23570 | 86.08006 | 35339 ft | 453 kts | 55° |
| 2026-04-21 00:07 | 43.26984 | 86.15252 | 35335 ft | 452 kts | 54° |
| 2026-04-21 00:07 | 43.30438 | 86.22409 | 35327 ft | 452 kts | 54° |
| 2026-04-21 00:08 | 43.33939 | 86.29606 | 35308 ft | 453 kts | 54° |
| 2026-04-21 00:08 | 43.37431 | 86.36804 | 35305 ft | 453 kts | 54° |
| 2026-04-21 00:09 | 43.40924 | 86.44020 | 35294 ft | 453 kts | 54° |
| 2026-04-21 00:09 | 43.44438 | 86.51225 | 35288 ft | 453 kts | 54° |
| 2026-04-21 00:10 | 43.47949 | 86.58441 | 35286 ft | 454 kts | 54° |
| 2026-04-21 00:10 | 43.51455 | 86.65668 | 35279 ft | 454 kts | 54° |
| 2026-04-21 00:11 | 43.54949 | 86.72927 | 35276 ft | 454 kts | 54° |
| 2026-04-21 00:11 | 43.57823 | 86.78987 | 35271 ft | 454 kts | 54° |
| 2026-04-21 00:12 | 43.61284 | 86.86290 | 35261 ft | 454 kts | 54° |
| 2026-04-21 00:12 | 43.64736 | 86.93594 | 35265 ft | 454 kts | 55° |
| 2026-04-21 00:13 | 43.68185 | 87.00907 | 35264 ft | 454 kts | 55° |
| 2026-04-21 00:13 | 43.71612 | 87.08192 | 35262 ft | 454 kts | 55° |
| 2026-04-21 00:14 | 43.75052 | 87.15533 | 35255 ft | 454 kts | 55° |
| 2026-04-21 00:14 | 43.78484 | 87.22884 | 35259 ft | 455 kts | 55° |
| 2026-04-21 00:15 | 43.81914 | 87.30249 | 35255 ft | 455 kts | 55° |
| 2026-04-21 00:15 | 43.85335 | 87.37615 | 35256 ft | 455 kts | 56° |
| 2026-04-21 00:16 | 43.88757 | 87.45000 | 35258 ft | 455 kts | 56° |
| 2026-04-21 00:16 | 43.92290 | 87.52208 | 35259 ft | 453 kts | 50° |
| 2026-04-21 00:17 | 43.96146 | 87.59157 | 35256 ft | 454 kts | 51° |
| 2026-04-21 00:17 | 43.99957 | 87.66162 | 35255 ft | 455 kts | 51° |
| 2026-04-21 00:18 | 44.03763 | 87.73192 | 35256 ft | 455 kts | 51° |
| 2026-04-21 00:18 | 44.07574 | 87.80248 | 35254 ft | 455 kts | 52° |
| 2026-04-21 00:19 | 44.11358 | 87.87271 | 35255 ft | 456 kts | 52° |
| 2026-04-21 00:19 | 44.14802 | 87.94658 | 35246 ft | 457 kts | 68° |
| 2026-04-21 00:19 | 44.15571 | 87.98951 | 35255 ft | 459 kts | 82° |
| 2026-04-21 00:20 | 44.15560 | 88.03400 | 35255 ft | 462 kts | 98° |
| 2026-04-21 00:20 | 44.13846 | 88.12052 | 35258 ft | 465 kts | 107° |
| 2026-04-21 00:21 | 44.11820 | 88.20550 | 35260 ft | 465 kts | 108° |
| 2026-04-21 00:21 | 44.09710 | 88.29068 | 35265 ft | 465 kts | 109° |
| 2026-04-21 00:22 | 44.07584 | 88.37571 | 35265 ft | 465 kts | 109° |
| 2026-04-21 00:22 | 44.05465 | 88.46011 | 35267 ft | 464 kts | 109° |
| 2026-04-21 00:23 | 44.03330 | 88.54482 | 35270 ft | 464 kts | 109° |
| 2026-04-21 00:23 | 44.01194 | 88.62930 | 35274 ft | 463 kts | 109° |
| 2026-04-21 00:24 | 43.99050 | 88.71378 | 35278 ft | 463 kts | 109° |
| 2026-04-21 00:24 | 43.96908 | 88.79804 | 35279 ft | 462 kts | 108° |
| 2026-04-21 00:25 | 43.94996 | 88.88324 | 35285 ft | 462 kts | 107° |
| 2026-04-21 00:25 | 43.93078 | 88.96783 | 35289 ft | 462 kts | 107° |
| 2026-04-21 00:26 | 43.91137 | 89.05290 | 35290 ft | 462 kts | 107° |
| 2026-04-21 00:26 | 43.89192 | 89.13783 | 35294 ft | 462 kts | 107° |
| 2026-04-21 00:27 | 43.87239 | 89.22271 | 35296 ft | 462 kts | 107° |
| 2026-04-21 00:27 | 43.85278 | 89.30766 | 35299 ft | 462 kts | 107° |
| 2026-04-21 00:28 | 43.83329 | 89.39178 | 35299 ft | 461 kts | 107° |
| 2026-04-21 00:28 | 43.81360 | 89.47646 | 35303 ft | 461 kts | 107° |
| 2026-04-21 00:29 | 43.79444 | 89.56126 | 35309 ft | 461 kts | 106° |
| 2026-04-21 00:29 | 43.77542 | 89.64616 | 35306 ft | 461 kts | 106° |
| 2026-04-21 00:30 | 43.75646 | 89.73035 | 35313 ft | 461 kts | 107° |
| 2026-04-21 00:30 | 43.73734 | 89.81493 | 35313 ft | 461 kts | 107° |
| 2026-04-21 00:31 | 43.71815 | 89.89951 | 35316 ft | 460 kts | 107° |
| 2026-04-21 00:31 | 43.69892 | 89.98389 | 35322 ft | 460 kts | 107° |
| 2026-04-21 00:32 | 43.67967 | 90.06830 | 35316 ft | 460 kts | 106° |
| 2026-04-21 00:32 | 43.66162 | 90.15314 | 35317 ft | 460 kts | 105° |
| 2026-04-21 00:33 | 43.64344 | 90.23788 | 35316 ft | 460 kts | 105° |
| 2026-04-21 00:33 | 43.62517 | 90.32257 | 35306 ft | 460 kts | 105° |
| 2026-04-21 00:34 | 43.60683 | 90.40724 | 35294 ft | 460 kts | 106° |
| 2026-04-21 00:34 | 43.58842 | 90.49196 | 35284 ft | 461 kts | 106° |
| 2026-04-21 00:35 | 43.57006 | 90.57605 | 35274 ft | 461 kts | 106° |
| 2026-04-21 00:35 | 43.55151 | 90.66072 | 35265 ft | 462 kts | 106° |
| 2026-04-21 00:36 | 43.53284 | 90.74555 | 35255 ft | 462 kts | 106° |
| 2026-04-21 00:36 | 43.51410 | 90.83041 | 35247 ft | 463 kts | 106° |
| 2026-04-21 00:37 | 43.49526 | 90.91536 | 35244 ft | 463 kts | 106° |
| 2026-04-21 00:37 | 43.47636 | 91.00021 | 35235 ft | 463 kts | 106° |
| 2026-04-21 00:38 | 43.45752 | 91.08453 | 35225 ft | 464 kts | 106° |
| 2026-04-21 00:38 | 43.43848 | 91.16935 | 35225 ft | 464 kts | 107° |
| 2026-04-21 00:39 | 43.41937 | 91.25422 | 35217 ft | 464 kts | 107° |
| 2026-04-21 00:39 | 43.40017 | 91.33913 | 35211 ft | 464 kts | 107° |
| 2026-04-21 00:40 | 43.38087 | 91.42396 | 35198 ft | 464 kts | 107° |
| 2026-04-21 00:40 | 43.36169 | 91.50805 | 35195 ft | 464 kts | 107° |
| 2026-04-21 00:41 | 43.34227 | 91.59281 | 35187 ft | 464 kts | 107° |
| 2026-04-21 00:41 | 43.32281 | 91.67748 | 35185 ft | 464 kts | 107° |
| 2026-04-21 00:42 | 43.30330 | 91.76204 | 35180 ft | 464 kts | 107° |
| 2026-04-21 00:42 | 43.28387 | 91.84591 | 35173 ft | 464 kts | 108° |
| 2026-04-21 00:43 | 43.26427 | 91.93017 | 35166 ft | 463 kts | 108° |
| 2026-04-21 00:43 | 43.24458 | 92.01456 | 35166 ft | 463 kts | 108° |
| 2026-04-21 00:44 | 43.22482 | 92.09886 | 35161 ft | 463 kts | 108° |
| 2026-04-21 00:44 | 43.20505 | 92.18295 | 35157 ft | 463 kts | 108° |
| 2026-04-21 00:45 | 43.17526 | 92.30899 | 35148 ft | 463 kts | 108° |
| 2026-04-21 00:45 | 43.15535 | 92.39287 | 35147 ft | 463 kts | 108° |
| 2026-04-21 00:46 | 43.13547 | 92.47628 | 35143 ft | 464 kts | 108° |
| 2026-04-21 00:46 | 43.11534 | 92.56044 | 35137 ft | 464 kts | 108° |
| 2026-04-21 00:47 | 43.09517 | 92.64446 | 35136 ft | 464 kts | 109° |
| 2026-04-21 00:47 | 43.07495 | 92.72835 | 35133 ft | 464 kts | 109° |
| 2026-04-21 00:48 | 43.05476 | 92.81185 | 35135 ft | 464 kts | 109° |
| 2026-04-21 00:48 | 43.03444 | 92.89560 | 35133 ft | 464 kts | 109° |
| 2026-04-21 00:49 | 43.01405 | 92.97928 | 35127 ft | 464 kts | 109° |
| 2026-04-21 00:49 | 42.99361 | 93.06287 | 35131 ft | 464 kts | 109° |
| 2026-04-21 00:50 | 42.97308 | 93.14652 | 35126 ft | 464 kts | 109° |
| 2026-04-21 00:50 | 42.95252 | 93.22998 | 35125 ft | 463 kts | 110° |
| 2026-04-21 00:51 | 42.93194 | 93.31326 | 35118 ft | 463 kts | 110° |
| 2026-04-21 00:51 | 42.91130 | 93.39644 | 35124 ft | 463 kts | 110° |
| 2026-04-21 00:52 | 42.89075 | 93.47904 | 35128 ft | 462 kts | 110° |
| 2026-04-21 00:52 | 42.87009 | 93.56185 | 35128 ft | 461 kts | 110° |
| 2026-04-21 00:53 | 42.84911 | 93.64444 | 35126 ft | 459 kts | 115° |
| 2026-04-21 00:53 | 42.83300 | 93.68148 | 35127 ft | 452 kts | 131° |
| 2026-04-21 00:53 | 42.81305 | 93.71465 | 35130 ft | 454 kts | 131° |
| 2026-04-21 00:54 | 42.77279 | 93.78072 | 35137 ft | 453 kts | 132° |
| 2026-04-21 00:54 | 42.73204 | 93.84597 | 35137 ft | 451 kts | 133° |
| 2026-04-21 00:55 | 42.69125 | 93.91084 | 35136 ft | 452 kts | 132° |
| 2026-04-21 00:55 | 42.65026 | 93.97585 | 35140 ft | 453 kts | 132° |
| 2026-04-21 00:56 | 42.60923 | 94.04078 | 35136 ft | 453 kts | 132° |
| 2026-04-21 00:56 | 42.56838 | 94.10528 | 35139 ft | 453 kts | 132° |
| 2026-04-21 00:57 | 42.52721 | 94.17015 | 35132 ft | 454 kts | 132° |
| 2026-04-21 00:57 | 42.48594 | 94.23503 | 35136 ft | 454 kts | 133° |
| 2026-04-21 00:58 | 42.44456 | 94.29994 | 35141 ft | 455 kts | 133° |
| 2026-04-21 00:58 | 42.40317 | 94.36473 | 35136 ft | 455 kts | 133° |
| 2026-04-21 00:59 | 42.36870 | 94.41858 | 35140 ft | 456 kts | 133° |
| 2026-04-21 00:59 | 42.32030 | 94.49401 | 35142 ft | 456 kts | 133° |
| 2026-04-21 01:00 | 42.28543 | 94.54824 | 35143 ft | 457 kts | 133° |
| 2026-04-21 01:00 | 42.24394 | 94.61263 | 35145 ft | 457 kts | 133° |
| 2026-04-21 01:01 | 42.20215 | 94.67735 | 35146 ft | 457 kts | 133° |
| 2026-04-21 01:01 | 42.16027 | 94.74207 | 35145 ft | 458 kts | 133° |
| 2026-04-21 01:02 | 42.11822 | 94.80690 | 35148 ft | 460 kts | 133° |
| 2026-04-21 01:02 | 42.07600 | 94.87185 | 35143 ft | 461 kts | 134° |
| 2026-04-21 01:03 | 42.03372 | 94.93677 | 35148 ft | 462 kts | 134° |
| 2026-04-21 01:03 | 41.99129 | 95.00176 | 35153 ft | 463 kts | 134° |
| 2026-04-21 01:04 | 41.94903 | 95.06638 | 35156 ft | 464 kts | 134° |
| 2026-04-21 01:04 | 41.90637 | 95.13148 | 35152 ft | 464 kts | 134° |
| 2026-04-21 01:05 | 41.87114 | 95.20412 | 35148 ft | 472 kts | 110° |
| 2026-04-21 01:05 | 41.86436 | 95.24731 | 35145 ft | 477 kts | 95° |
| 2026-04-21 01:05 | 41.86381 | 95.29202 | 35162 ft | 480 kts | 92° |
| 2026-04-21 01:06 | 41.86414 | 95.38186 | 35148 ft | 481 kts | 91° |
| 2026-04-21 01:06 | 41.86505 | 95.47167 | 35148 ft | 481 kts | 90° |
| 2026-04-21 01:07 | 41.86601 | 95.56136 | 35144 ft | 481 kts | 90° |
| 2026-04-21 01:07 | 41.86691 | 95.65049 | 35153 ft | 480 kts | 90° |
| 2026-04-21 01:08 | 41.86774 | 95.74020 | 35156 ft | 480 kts | 91° |
| 2026-04-21 01:08 | 41.86850 | 95.82980 | 35155 ft | 479 kts | 91° |
| 2026-04-21 01:09 | 41.86919 | 95.91857 | 35155 ft | 479 kts | 91° |
| 2026-04-21 01:09 | 41.86981 | 96.00788 | 35158 ft | 478 kts | 91° |
| 2026-04-21 01:10 | 41.87036 | 96.09717 | 35160 ft | 479 kts | 91° |
| 2026-04-21 01:10 | 41.87086 | 96.18649 | 35159 ft | 479 kts | 91° |
| 2026-04-21 01:11 | 41.87195 | 96.27584 | 35159 ft | 479 kts | 90° |
| 2026-04-21 01:11 | 41.87351 | 96.36522 | 35156 ft | 479 kts | 90° |
| 2026-04-21 01:12 | 41.87496 | 96.45472 | 35158 ft | 479 kts | 90° |
| 2026-04-21 01:12 | 41.87632 | 96.54355 | 35157 ft | 479 kts | 90° |
| 2026-04-21 01:13 | 41.87762 | 96.63308 | 35157 ft | 480 kts | 90° |
| 2026-04-21 01:13 | 41.87885 | 96.72259 | 35155 ft | 480 kts | 90° |
| 2026-04-21 01:14 | 41.88002 | 96.81212 | 35158 ft | 480 kts | 90° |
| 2026-04-21 01:14 | 41.88111 | 96.90175 | 35154 ft | 480 kts | 91° |
| 2026-04-21 01:15 | 41.88214 | 96.99165 | 35158 ft | 481 kts | 91° |
| 2026-04-21 01:15 | 41.88309 | 97.08092 | 35159 ft | 481 kts | 91° |
| 2026-04-21 01:16 | 41.88398 | 97.17085 | 35163 ft | 482 kts | 91° |
| 2026-04-21 01:16 | 41.88480 | 97.26091 | 35166 ft | 482 kts | 91° |
| 2026-04-21 01:17 | 41.88555 | 97.35094 | 35169 ft | 483 kts | 91° |
| 2026-04-21 01:17 | 41.88623 | 97.44109 | 35172 ft | 483 kts | 91° |
| 2026-04-21 01:18 | 41.88684 | 97.53133 | 35177 ft | 484 kts | 91° |
| 2026-04-21 01:18 | 41.88737 | 97.62103 | 35180 ft | 484 kts | 91° |
| 2026-04-21 01:19 | 41.88784 | 97.71139 | 35178 ft | 484 kts | 91° |
| 2026-04-21 01:19 | 41.88824 | 97.80196 | 35180 ft | 485 kts | 91° |
| 2026-04-21 01:20 | 41.88857 | 97.89256 | 35180 ft | 485 kts | 91° |
| 2026-04-21 01:20 | 41.88882 | 97.98323 | 35178 ft | 486 kts | 91° |
| 2026-04-21 01:21 | 41.88901 | 98.07335 | 35176 ft | 486 kts | 92° |
| 2026-04-21 01:21 | 41.88912 | 98.16410 | 35174 ft | 486 kts | 92° |
| 2026-04-21 01:22 | 41.88916 | 98.25489 | 35176 ft | 486 kts | 92° |
| 2026-04-21 01:22 | 41.88914 | 98.34574 | 35172 ft | 486 kts | 92° |
| 2026-04-21 01:23 | 41.88904 | 98.43656 | 35170 ft | 487 kts | 92° |
| 2026-04-21 01:23 | 41.88887 | 98.52731 | 35166 ft | 487 kts | 92° |
| 2026-04-21 01:24 | 41.88862 | 98.61823 | 35169 ft | 487 kts | 92° |
| 2026-04-21 01:24 | 41.88831 | 98.70922 | 35171 ft | 487 kts | 92° |
| 2026-04-21 01:25 | 41.88792 | 98.80011 | 35166 ft | 487 kts | 92° |
| 2026-04-21 01:25 | 41.88746 | 98.89109 | 35170 ft | 487 kts | 93° |
| 2026-04-21 01:26 | 41.88694 | 98.98148 | 35173 ft | 488 kts | 93° |
| 2026-04-21 01:26 | 41.88634 | 99.07253 | 35172 ft | 488 kts | 93° |
| 2026-04-21 01:27 | 41.88566 | 99.16365 | 35177 ft | 488 kts | 93° |
| 2026-04-21 01:27 | 41.88491 | 99.25478 | 35176 ft | 488 kts | 93° |
| 2026-04-21 01:28 | 41.88410 | 99.34598 | 35178 ft | 489 kts | 93° |
| 2026-04-21 01:28 | 41.88320 | 99.43723 | 35182 ft | 489 kts | 94° |
| 2026-04-21 01:29 | 41.88224 | 99.52845 | 35182 ft | 489 kts | 94° |
| 2026-04-21 01:29 | 41.88121 | 99.61917 | 35187 ft | 489 kts | 94° |
| 2026-04-21 01:30 | 41.88010 | 99.71048 | 35186 ft | 489 kts | 94° |
| 2026-04-21 01:30 | 41.87891 | 99.80185 | 35191 ft | 490 kts | 94° |
| 2026-04-21 01:31 | 41.87766 | 99.89333 | 35191 ft | 490 kts | 94° |
| 2026-04-21 01:31 | 41.87633 | 99.98484 | 35193 ft | 490 kts | 94° |
| 2026-04-21 01:32 | 41.87493 | 100.07628 | 35189 ft | 490 kts | 94° |
| 2026-04-21 01:32 | 41.87345 | 100.16779 | 35190 ft | 491 kts | 94° |
| 2026-04-21 01:33 | 41.87191 | 100.25934 | 35190 ft | 491 kts | 94° |
| 2026-04-21 01:33 | 41.87028 | 100.35111 | 35185 ft | 491 kts | 95° |
| 2026-04-21 01:34 | 41.86860 | 100.44210 | 35184 ft | 491 kts | 95° |
| 2026-04-21 01:34 | 41.86683 | 100.53364 | 35184 ft | 491 kts | 95° |
| 2026-04-21 01:35 | 41.86499 | 100.62531 | 35185 ft | 491 kts | 95° |
| 2026-04-21 01:35 | 41.86308 | 100.71700 | 35181 ft | 491 kts | 95° |
| 2026-04-21 01:36 | 41.86111 | 100.80864 | 35183 ft | 492 kts | 95° |
| 2026-04-21 01:36 | 41.85908 | 100.90032 | 35180 ft | 492 kts | 95° |
| 2026-04-21 01:37 | 41.85697 | 100.99218 | 35179 ft | 492 kts | 95° |
| 2026-04-21 01:37 | 41.85480 | 101.08391 | 35177 ft | 492 kts | 95° |
| 2026-04-21 01:38 | 41.85257 | 101.17520 | 35177 ft | 492 kts | 95° |
| 2026-04-21 01:38 | 41.84025 | 101.26369 | 35183 ft | 479 kts | 115° |
| 2026-04-21 01:39 | 41.81770 | 101.34823 | 35172 ft | 482 kts | 114° |
| 2026-04-21 01:39 | 41.79470 | 101.43252 | 35173 ft | 482 kts | 115° |
| 2026-04-21 01:40 | 41.77152 | 101.51688 | 35170 ft | 482 kts | 115° |
| 2026-04-21 01:40 | 41.74832 | 101.60101 | 35176 ft | 482 kts | 115° |
| 2026-04-21 01:41 | 41.72505 | 101.68511 | 35172 ft | 482 kts | 115° |
| 2026-04-21 01:41 | 41.70183 | 101.76874 | 35174 ft | 482 kts | 115° |
| 2026-04-21 01:42 | 41.67843 | 101.85275 | 35171 ft | 482 kts | 115° |
| 2026-04-21 01:42 | 41.65493 | 101.93683 | 35173 ft | 483 kts | 115° |
| 2026-04-21 01:43 | 41.63136 | 102.02087 | 35170 ft | 483 kts | 115° |
| 2026-04-21 01:43 | 41.60772 | 102.10490 | 35171 ft | 483 kts | 115° |
| 2026-04-21 01:44 | 41.58398 | 102.18897 | 35164 ft | 483 kts | 115° |
| 2026-04-21 01:44 | 41.56018 | 102.27302 | 35178 ft | 484 kts | 115° |
| 2026-04-21 01:45 | 41.53629 | 102.35709 | 35178 ft | 484 kts | 115° |
| 2026-04-21 01:45 | 41.51232 | 102.44117 | 35171 ft | 485 kts | 115° |
| 2026-04-21 01:46 | 41.48829 | 102.52515 | 35173 ft | 485 kts | 115° |
| 2026-04-21 01:46 | 41.46435 | 102.60863 | 35178 ft | 485 kts | 115° |
| 2026-04-21 01:47 | 41.44022 | 102.69252 | 35179 ft | 485 kts | 115° |
| 2026-04-21 01:47 | 41.41605 | 102.77674 | 35174 ft | 486 kts | 115° |
| 2026-04-21 01:48 | 41.39596 | 102.84654 | 35173 ft | 486 kts | 115° |
| 2026-04-21 01:48 | 41.37174 | 102.93046 | 35171 ft | 486 kts | 115° |
| 2026-04-21 01:49 | 41.34795 | 103.01480 | 35170 ft | 487 kts | 114° |
| 2026-04-21 01:49 | 41.32466 | 103.09938 | 35171 ft | 487 kts | 114° |
| 2026-04-21 01:50 | 41.30124 | 103.18391 | 35169 ft | 487 kts | 114° |
| 2026-04-21 01:50 | 41.27774 | 103.26840 | 35168 ft | 487 kts | 114° |
| 2026-04-21 01:51 | 41.25413 | 103.35304 | 35169 ft | 488 kts | 114° |
| 2026-04-21 01:51 | 41.23047 | 103.43754 | 35172 ft | 488 kts | 114° |
| 2026-04-21 01:52 | 41.19485 | 103.56426 | 35171 ft | 489 kts | 115° |
| 2026-04-21 01:53 | 41.17113 | 103.64830 | 35171 ft | 489 kts | 115° |
| 2026-04-21 01:53 | 41.14716 | 103.73291 | 35174 ft | 489 kts | 115° |
| 2026-04-21 01:54 | 41.12316 | 103.81740 | 35176 ft | 490 kts | 115° |
| 2026-04-21 01:54 | 41.09903 | 103.90204 | 35176 ft | 490 kts | 115° |
| 2026-04-21 01:55 | 41.07481 | 103.98668 | 35176 ft | 491 kts | 115° |
| 2026-04-21 01:55 | 41.05054 | 104.07125 | 35172 ft | 491 kts | 115° |
| 2026-04-21 01:56 | 41.02619 | 104.15584 | 35169 ft | 491 kts | 115° |
| 2026-04-21 01:56 | 41.00192 | 104.23992 | 35171 ft | 492 kts | 115° |
| 2026-04-21 01:57 | 40.97836 | 104.32508 | 35171 ft | 494 kts | 110° |
| 2026-04-21 01:57 | 40.95795 | 104.41210 | 35172 ft | 495 kts | 111° |
| 2026-04-21 01:58 | 40.93700 | 104.49895 | 35171 ft | 495 kts | 111° |
| 2026-04-21 01:58 | 40.91594 | 104.58577 | 35173 ft | 496 kts | 111° |
| 2026-04-21 01:59 | 40.89492 | 104.67209 | 35174 ft | 497 kts | 111° |
| 2026-04-21 01:59 | 40.87366 | 104.75908 | 35177 ft | 498 kts | 111° |
| 2026-04-21 02:00 | 40.85230 | 104.84617 | 35181 ft | 499 kts | 111° |
| 2026-04-21 02:00 | 40.83083 | 104.93335 | 35180 ft | 499 kts | 111° |
| 2026-04-21 02:01 | 40.80927 | 105.02057 | 35184 ft | 500 kts | 111° |
| 2026-04-21 02:01 | 40.78760 | 105.10796 | 35184 ft | 501 kts | 112° |
| 2026-04-21 02:02 | 40.76586 | 105.19526 | 35181 ft | 501 kts | 112° |
| 2026-04-21 02:02 | 40.74403 | 105.28262 | 35181 ft | 502 kts | 112° |
| 2026-04-21 02:03 | 40.72208 | 105.37013 | 35177 ft | 503 kts | 112° |
| 2026-04-21 02:03 | 40.70005 | 105.45766 | 35173 ft | 504 kts | 112° |
| 2026-04-21 02:04 | 40.67790 | 105.54532 | 35172 ft | 504 kts | 112° |
| 2026-04-21 02:04 | 40.65582 | 105.63238 | 35169 ft | 504 kts | 112° |
| 2026-04-21 02:05 | 40.63351 | 105.72005 | 35165 ft | 505 kts | 112° |
| 2026-04-21 02:05 | 40.61114 | 105.80762 | 35165 ft | 505 kts | 112° |
| 2026-04-21 02:06 | 40.58869 | 105.89519 | 35161 ft | 505 kts | 112° |
| 2026-04-21 02:06 | 40.56615 | 105.98281 | 35159 ft | 505 kts | 112° |
| 2026-04-21 02:07 | 40.54355 | 106.07034 | 35158 ft | 505 kts | 113° |
| 2026-04-21 02:07 | 40.52103 | 106.15724 | 35158 ft | 505 kts | 113° |
| 2026-04-21 02:08 | 40.49827 | 106.24478 | 35162 ft | 505 kts | 113° |
| 2026-04-21 02:08 | 40.47546 | 106.33216 | 35169 ft | 506 kts | 113° |
| 2026-04-21 02:09 | 40.45254 | 106.41966 | 35174 ft | 507 kts | 113° |
| 2026-04-21 02:09 | 40.42954 | 106.50719 | 35170 ft | 508 kts | 113° |
| 2026-04-21 02:10 | 40.40642 | 106.59482 | 35172 ft | 509 kts | 113° |
| 2026-04-21 02:10 | 40.38320 | 106.68256 | 35170 ft | 510 kts | 113° |
| 2026-04-21 02:11 | 40.35999 | 106.76998 | 35168 ft | 511 kts | 113° |
| 2026-04-21 02:11 | 40.33656 | 106.85799 | 35168 ft | 512 kts | 113° |
| 2026-04-21 02:12 | 40.31520 | 106.94716 | 35148 ft | 517 kts | 101° |
| 2026-04-21 02:12 | 40.31367 | 106.99437 | 35165 ft | 520 kts | 86° |
| 2026-04-21 02:12 | 40.31905 | 107.04133 | 35169 ft | 523 kts | 80° |
| 2026-04-21 02:13 | 40.33076 | 107.13547 | 35162 ft | 523 kts | 81° |
| 2026-04-21 02:13 | 40.34225 | 107.22907 | 35166 ft | 523 kts | 81° |
| 2026-04-21 02:14 | 40.35374 | 107.32336 | 35168 ft | 523 kts | 81° |
| 2026-04-21 02:14 | 40.36514 | 107.41758 | 35166 ft | 523 kts | 81° |
| 2026-04-21 02:15 | 40.37649 | 107.51197 | 35171 ft | 523 kts | 81° |
| 2026-04-21 02:15 | 40.38774 | 107.60623 | 35170 ft | 523 kts | 81° |
| 2026-04-21 02:16 | 40.39892 | 107.70062 | 35174 ft | 523 kts | 81° |
| 2026-04-21 02:16 | 40.40996 | 107.79446 | 35173 ft | 524 kts | 81° |
| 2026-04-21 02:17 | 40.42099 | 107.88891 | 35175 ft | 524 kts | 81° |
| 2026-04-21 02:17 | 40.43201 | 107.98364 | 35173 ft | 524 kts | 81° |
| 2026-04-21 02:18 | 40.44297 | 108.07826 | 35175 ft | 525 kts | 81° |
| 2026-04-21 02:18 | 40.45387 | 108.17300 | 35173 ft | 525 kts | 81° |
| 2026-04-21 02:19 | 40.46470 | 108.26794 | 35175 ft | 525 kts | 81° |
| 2026-04-21 02:19 | 40.47546 | 108.36281 | 35171 ft | 525 kts | 81° |
| 2026-04-21 02:20 | 40.48606 | 108.45714 | 35176 ft | 526 kts | 81° |
| 2026-04-21 02:20 | 40.49667 | 108.55220 | 35178 ft | 526 kts | 81° |
| 2026-04-21 02:21 | 40.50722 | 108.64744 | 35177 ft | 526 kts | 81° |
| 2026-04-21 02:21 | 40.51769 | 108.74270 | 35178 ft | 526 kts | 81° |
| 2026-04-21 02:22 | 40.52807 | 108.83797 | 35175 ft | 527 kts | 82° |
| 2026-04-21 02:22 | 40.53835 | 108.93286 | 35176 ft | 527 kts | 82° |
| 2026-04-21 02:23 | 40.54859 | 109.02833 | 35179 ft | 527 kts | 82° |
| 2026-04-21 02:23 | 40.55877 | 109.12395 | 35171 ft | 528 kts | 82° |
| 2026-04-21 02:24 | 40.56888 | 109.21965 | 35177 ft | 528 kts | 82° |
| 2026-04-21 02:24 | 40.57891 | 109.31538 | 35179 ft | 529 kts | 82° |
| 2026-04-21 02:25 | 40.58889 | 109.41136 | 35179 ft | 529 kts | 82° |
| 2026-04-21 02:25 | 40.59877 | 109.50725 | 35180 ft | 529 kts | 82° |
| 2026-04-21 02:26 | 40.60859 | 109.60336 | 35183 ft | 530 kts | 82° |
| 2026-04-21 02:26 | 40.61827 | 109.69890 | 35186 ft | 530 kts | 82° |
| 2026-04-21 02:27 | 40.62795 | 109.79518 | 35181 ft | 531 kts | 82° |
| 2026-04-21 02:27 | 40.63759 | 109.89164 | 35184 ft | 531 kts | 82° |
| 2026-04-21 02:28 | 40.64631 | 109.98824 | 35170 ft | 531 kts | 89° |
| 2026-04-21 02:28 | 40.64621 | 110.08486 | 35177 ft | 531 kts | 91° |
| 2026-04-21 02:29 | 40.64575 | 110.18227 | 35176 ft | 532 kts | 91° |
| 2026-04-21 02:29 | 40.64517 | 110.27974 | 35181 ft | 532 kts | 91° |
| 2026-04-21 02:30 | 40.64451 | 110.37737 | 35182 ft | 533 kts | 91° |
| 2026-04-21 02:30 | 40.64378 | 110.47497 | 35191 ft | 533 kts | 91° |
| 2026-04-21 02:31 | 40.64299 | 110.57205 | 35181 ft | 533 kts | 91° |
| 2026-04-21 02:31 | 40.64211 | 110.66964 | 35170 ft | 533 kts | 91° |
| 2026-04-21 02:32 | 40.64114 | 110.76744 | 35216 ft | 535 kts | 91° |
| 2026-04-21 02:32 | 40.64009 | 110.86539 | 35180 ft | 534 kts | 92° |
| 2026-04-21 02:33 | 40.63896 | 110.96319 | 35187 ft | 535 kts | 92° |
| 2026-04-21 02:33 | 40.63775 | 111.06060 | 35187 ft | 535 kts | 92° |
| 2026-04-21 02:34 | 40.63646 | 111.15869 | 35188 ft | 536 kts | 92° |
| 2026-04-21 02:34 | 40.63507 | 111.25689 | 35191 ft | 536 kts | 92° |
| 2026-04-21 02:35 | 40.63360 | 111.35508 | 35190 ft | 536 kts | 92° |
| 2026-04-21 02:35 | 40.63206 | 111.45340 | 35192 ft | 537 kts | 92° |
| 2026-04-21 02:36 | 40.63043 | 111.55180 | 35195 ft | 537 kts | 92° |
| 2026-04-21 02:36 | 40.62872 | 111.64957 | 35193 ft | 538 kts | 92° |
| 2026-04-21 02:37 | 40.62691 | 111.74824 | 35196 ft | 539 kts | 92° |
| 2026-04-21 02:37 | 40.62503 | 111.84698 | 35198 ft | 539 kts | 92° |
| 2026-04-21 02:38 | 40.62313 | 111.94581 | 35198 ft | 540 kts | 92° |
| 2026-04-21 02:38 | 40.62043 | 112.07609 | 35189 ft | 541 kts | 92° |
| 2026-04-21 02:39 | 40.61817 | 112.17509 | 35183 ft | 541 kts | 92° |
| 2026-04-21 02:39 | 40.61587 | 112.27420 | 35174 ft | 542 kts | 92° |
| 2026-04-21 02:40 | 40.61348 | 112.37341 | 35166 ft | 542 kts | 93° |
| 2026-04-21 02:40 | 40.61096 | 112.47273 | 35169 ft | 543 kts | 94° |
| 2026-04-21 02:41 | 40.60555 | 112.57175 | 35173 ft | 543 kts | 95° |
| 2026-04-21 02:41 | 40.60029 | 112.67034 | 35167 ft | 544 kts | 95° |
| 2026-04-21 02:42 | 40.59356 | 112.76948 | 35170 ft | 544 kts | 98° |
| 2026-04-21 02:42 | 40.58687 | 112.86858 | 35168 ft | 544 kts | 96° |
| 2026-04-21 02:43 | 40.58027 | 112.96771 | 35166 ft | 544 kts | 97° |
| 2026-04-21 02:43 | 40.57355 | 113.06726 | 35169 ft | 545 kts | 97° |
| 2026-04-21 02:44 | 40.56675 | 113.16662 | 35161 ft | 545 kts | 97° |
| 2026-04-21 02:44 | 40.55992 | 113.26533 | 35166 ft | 546 kts | 97° |
| 2026-04-21 02:45 | 40.55295 | 113.36470 | 35163 ft | 546 kts | 97° |
| 2026-04-21 02:45 | 40.54588 | 113.46420 | 35165 ft | 547 kts | 97° |
| 2026-04-21 02:46 | 40.53871 | 113.56390 | 35163 ft | 548 kts | 97° |
| 2026-04-21 02:46 | 40.53145 | 113.66365 | 35154 ft | 549 kts | 97° |
| 2026-04-21 02:47 | 40.52410 | 113.76354 | 35164 ft | 549 kts | 97° |
| 2026-04-21 02:47 | 40.51665 | 113.86346 | 35159 ft | 550 kts | 97° |
| 2026-04-21 02:48 | 40.50914 | 113.96343 | 35152 ft | 550 kts | 97° |
| 2026-04-21 02:48 | 40.50487 | 114.06377 | 35138 ft | 550 kts | 94° |
| 2026-04-21 02:49 | 40.50065 | 114.16372 | 35159 ft | 552 kts | 94° |
| 2026-04-21 02:49 | 40.49624 | 114.26455 | 35152 ft | 552 kts | 95° |
| 2026-04-21 02:50 | 40.49174 | 114.36529 | 35152 ft | 553 kts | 95° |
| 2026-04-21 02:50 | 40.48715 | 114.46618 | 35141 ft | 553 kts | 95° |
| 2026-04-21 02:51 | 40.48247 | 114.56711 | 35151 ft | 554 kts | 95° |
| 2026-04-21 02:51 | 40.47772 | 114.66763 | 35054 ft | 555 kts | 95° |
| 2026-04-21 02:51 | 40.47529 | 114.71834 | 34783 ft | 553 kts | 95° |
| 2026-04-21 02:52 | 40.47286 | 114.76860 | 34308 ft | 548 kts | 95° |
| 2026-04-21 02:52 | 40.47041 | 114.81888 | 33159 ft | 556 kts | 94° |
| 2026-04-21 02:52 | 40.46794 | 114.86904 | 32679 ft | 547 kts | 94° |
| 2026-04-21 02:52 | 40.46547 | 114.91880 | 31973 ft | 544 kts | 94° |
| 2026-04-21 02:53 | 40.46298 | 114.96843 | 31223 ft | 543 kts | 94° |
| 2026-04-21 02:53 | 40.46049 | 115.01789 | 30461 ft | 543 kts | 94° |
| 2026-04-21 02:53 | 40.45797 | 115.06723 | 29620 ft | 542 kts | 94° |
| 2026-04-21 02:53 | 40.45543 | 115.11655 | 28713 ft | 541 kts | 94° |
| 2026-04-21 02:54 | 40.45287 | 115.16580 | 27800 ft | 541 kts | 94° |
| 2026-04-21 02:54 | 40.45031 | 115.21498 | 26838 ft | 540 kts | 93° |
| 2026-04-21 02:54 | 40.44771 | 115.26420 | 25886 ft | 540 kts | 93° |
| 2026-04-21 02:54 | 40.44510 | 115.31333 | 25032 ft | 538 kts | 93° |
| 2026-04-21 02:55 | 40.44250 | 115.36205 | 24314 ft | 533 kts | 93° |
| 2026-04-21 02:55 | 40.43990 | 115.41024 | 23674 ft | 526 kts | 93° |
| 2026-04-21 02:55 | 40.43737 | 115.45721 | 22957 ft | 520 kts | 93° |
| 2026-04-21 02:55 | 40.43481 | 115.50422 | 22273 ft | 513 kts | 93° |
| 2026-04-21 02:56 | 40.43382 | 115.55064 | 21622 ft | 505 kts | 89° |
| 2026-04-21 02:56 | 40.43300 | 115.64146 | 20383 ft | 491 kts | 89° |
| 2026-04-21 02:56 | 40.43243 | 115.68605 | 19757 ft | 480 kts | 89° |
| 2026-04-21 02:57 | 40.43186 | 115.72941 | 18622 ft | 472 kts | 89° |
| 2026-04-21 02:57 | 40.43139 | 115.77232 | 17521 ft | 470 kts | 89° |
| 2026-04-21 02:57 | 40.43102 | 115.81468 | 16630 ft | 456 kts | 89° |
| 2026-04-21 02:57 | 40.43063 | 115.85618 | 15712 ft | 454 kts | 89° |
| 2026-04-21 02:58 | 40.43022 | 115.89743 | 15084 ft | 444 kts | 89° |
| 2026-04-21 02:58 | 40.42982 | 115.93715 | 14217 ft | 441 kts | 89° |
| 2026-04-21 02:58 | 40.42939 | 115.97703 | 13757 ft | 432 kts | 89° |
| 2026-04-21 02:58 | 40.42897 | 116.01594 | 13421 ft | 420 kts | 89° |
| 2026-04-21 02:59 | 40.42854 | 116.05378 | 13090 ft | 410 kts | 89° |
| 2026-04-21 02:59 | 40.42812 | 116.09079 | 12775 ft | 400 kts | 89° |
| 2026-04-21 02:59 | 40.42769 | 116.12689 | 12504 ft | 391 kts | 89° |
| 2026-04-21 02:59 | 40.42725 | 116.16240 | 12236 ft | 388 kts | 89° |
| 2026-04-21 03:00 | 40.42681 | 116.19779 | 11976 ft | 387 kts | 89° |
| 2026-04-21 03:00 | 40.42636 | 116.23307 | 11702 ft | 386 kts | 89° |
| 2026-04-21 03:00 | 40.42590 | 116.26822 | 11445 ft | 384 kts | 89° |
| 2026-04-21 03:00 | 40.42542 | 116.30321 | 11162 ft | 382 kts | 89° |
| 2026-04-21 03:01 | 40.42174 | 116.33745 | 10936 ft | 377 kts | 108° |
| 2026-04-21 03:01 | 40.40893 | 116.36653 | 10878 ft | 363 kts | 131° |
| 2026-04-21 03:01 | 40.39118 | 116.38841 | 10859 ft | 348 kts | 139° |
| 2026-04-21 03:01 | 40.37359 | 116.40936 | 10824 ft | 335 kts | 138° |
| 2026-04-21 03:02 | 40.35683 | 116.42977 | 10788 ft | 323 kts | 138° |
| 2026-04-21 03:02 | 40.34076 | 116.44954 | 10748 ft | 312 kts | 137° |
| 2026-04-21 03:02 | 40.32516 | 116.46885 | 10699 ft | 307 kts | 137° |
| 2026-04-21 03:02 | 40.30968 | 116.48814 | 10657 ft | 306 kts | 137° |
| 2026-04-21 03:03 | 40.29429 | 116.50736 | 10609 ft | 303 kts | 137° |
| 2026-04-21 03:03 | 40.27918 | 116.52624 | 10413 ft | 298 kts | 137° |
| 2026-04-21 03:03 | 40.26419 | 116.54498 | 10167 ft | 296 kts | 137° |
| 2026-04-21 03:03 | 40.24936 | 116.56351 | 9863 ft | 294 kts | 137° |
| 2026-04-21 03:04 | 40.23465 | 116.58191 | 9570 ft | 291 kts | 137° |
| 2026-04-21 03:04 | 40.22002 | 116.60018 | 9239 ft | 290 kts | 138° |
| 2026-04-21 03:04 | 40.20565 | 116.61812 | 8966 ft | 288 kts | 138° |
| 2026-04-21 03:04 | 40.19115 | 116.63621 | 8671 ft | 287 kts | 138° |
| 2026-04-21 03:05 | 40.17675 | 116.65417 | 8364 ft | 286 kts | 138° |
| 2026-04-21 03:05 | 40.16238 | 116.67208 | 8091 ft | 284 kts | 138° |
| 2026-04-21 03:05 | 40.14809 | 116.68989 | 7778 ft | 283 kts | 138° |
| 2026-04-21 03:05 | 40.13387 | 116.70758 | 7495 ft | 282 kts | 138° |
| 2026-04-21 03:06 | 40.11793 | 116.72183 | 7203 ft | 276 kts | 162° |
| 2026-04-21 03:06 | 40.09947 | 116.72721 | 6894 ft | 272 kts | 174° |
| 2026-04-21 03:06 | 40.08079 | 116.73078 | 6600 ft | 271 kts | 175° |
| 2026-04-21 03:06 | 40.06213 | 116.73406 | 6301 ft | 270 kts | 175° |
| 2026-04-21 03:07 | 40.04353 | 116.73718 | 6001 ft | 270 kts | 175° |
| 2026-04-21 03:07 | 40.02494 | 116.74021 | 5734 ft | 268 kts | 176° |
| 2026-04-21 03:07 | 40.00644 | 116.74314 | 5477 ft | 267 kts | 176° |
| 2026-04-21 03:07 | 39.98800 | 116.74603 | 5189 ft | 266 kts | 176° |
| 2026-04-21 03:08 | 39.96963 | 116.74887 | 4984 ft | 264 kts | 176° |
| 2026-04-21 03:08 | 39.95142 | 116.75168 | 4912 ft | 264 kts | 176° |
| 2026-04-21 03:08 | 39.93309 | 116.75452 | 4919 ft | 265 kts | 176° |
| 2026-04-21 03:08 | 39.91476 | 116.75733 | 4902 ft | 265 kts | 176° |
| 2026-04-21 03:09 | 39.89648 | 116.76015 | 4913 ft | 264 kts | 176° |
| 2026-04-21 03:09 | 39.87854 | 116.76291 | 4956 ft | 256 kts | 175° |
| 2026-04-21 03:09 | 39.86096 | 116.76561 | 4917 ft | 253 kts | 175° |
| 2026-04-21 03:09 | 39.84370 | 116.76825 | 4913 ft | 253 kts | 176° |
| 2026-04-21 03:10 | 39.82636 | 116.77091 | 4906 ft | 244 kts | 176° |
| 2026-04-21 03:10 | 39.80995 | 116.77343 | 4906 ft | 233 kts | 176° |
| 2026-04-21 03:10 | 39.79402 | 116.77326 | 4881 ft | 226 kts | 198° |
| 2026-04-21 03:10 | 39.78094 | 116.76311 | 4882 ft | 219 kts | 231° |
| 2026-04-21 03:11 | 39.77426 | 116.74572 | 4897 ft | 216 kts | 258° |
| 2026-04-21 03:11 | 39.77159 | 116.72642 | 4918 ft | 218 kts | 262° |
| 2026-04-21 03:11 | 39.77101 | 116.70687 | 4885 ft | 217 kts | 283° |
| 2026-04-21 03:11 | 39.77821 | 116.69005 | 4905 ft | 217 kts | 314° |
| 2026-04-21 03:12 | 39.78998 | 116.67775 | 4917 ft | 215 kts | 322° |
| 2026-04-21 03:12 | 39.80195 | 116.66648 | 4909 ft | 210 kts | 322° |
| 2026-04-21 03:12 | 39.81457 | 116.65719 | 4836 ft | 210 kts | 339° |
| 2026-04-21 03:12 | 39.82884 | 116.65345 | 4573 ft | 208 kts | 351° |
| 2026-04-21 03:13 | 39.84317 | 116.65138 | 4299 ft | 206 kts | 351° |
| 2026-04-21 03:13 | 39.85716 | 116.64927 | 4053 ft | 201 kts | 351° |
| 2026-04-21 03:13 | 39.87108 | 116.64711 | 3793 ft | 202 kts | 350° |
| 2026-04-21 03:13 | 39.88501 | 116.64496 | 3498 ft | 201 kts | 351° |
| 2026-04-21 03:14 | 39.89888 | 116.64282 | 3236 ft | 200 kts | 351° |
| 2026-04-21 03:14 | 39.91269 | 116.64064 | 2966 ft | 199 kts | 351° |
| 2026-04-21 03:14 | 39.92626 | 116.63849 | 2745 ft | 194 kts | 351° |
| 2026-04-21 03:14 | 39.93966 | 116.63643 | 2426 ft | 192 kts | 351° |
| 2026-04-21 03:15 | 39.95265 | 116.63440 | 2205 ft | 188 kts | 350° |
| 2026-04-21 03:15 | 39.96556 | 116.63236 | 1981 ft | 189 kts | 350° |
| 2026-04-21 03:15 | 39.97812 | 116.63039 | 1711 ft | 173 kts | 352° |
| 2026-04-21 03:15 | 39.98952 | 116.62867 | 1525 ft | 158 kts | 350° |
| 2026-04-21 03:16 | 40.00031 | 116.62690 | 1277 ft | 154 kts | 350° |
| 2026-04-21 03:16 | 40.01096 | 116.62522 | 1063 ft | 155 kts | 350° |
| 2026-04-21 03:16 | 40.02169 | 116.62352 | 869 ft | 155 kts | 351° |
| 2026-04-21 03:16 | 40.03233 | 116.62183 | 648 ft | 153 kts | 352° |
| 2026-04-21 03:17 | 40.04282 | 116.62017 | 450 ft | 152 kts | 352° |
| 2026-04-21 03:17 | 40.05323 | 116.61854 | 271 ft | 149 kts | 353° |
| 2026-04-21 03:17 | 40.06334 | 116.61698 | 134 ft | 140 kts | 353° |
| 2026-04-21 03:17 | 40.07166 | 116.61568 | 125 ft | 91 kts | 353° |
| 2026-04-21 03:18 | 40.07633 | 116.61495 | 124 ft | 41 kts | 353° |
| 2026-04-21 03:18 | 40.07899 | 116.61365 | 124 ft | 39 kts | 325° |
| 2026-04-21 03:18 | 40.08068 | 116.61201 | 125 ft | 19 kts | 323° |
| 2026-04-21 03:18 | 40.08093 | 116.61055 | 127 ft | 16 kts | 263° |
| 2026-04-21 03:19 | 40.08074 | 116.60951 | 123 ft | 8 kts | 238° |
| 2026-04-21 03:19 | 40.08024 | 116.60906 | 123 ft | 9 kts | 175° |
| 2026-04-21 03:19 | 40.07973 | 116.60946 | 126 ft | 7 kts | 143° |
| 2026-04-21 03:19 | 40.07966 | 116.60954 | 126 ft | 0 kts | 144° |